sensor_id;sensor_type;location;lat;lon;timestamp;temperature;humidity
1049;DHT22;513;51.444;7.196;2022-07-06T00:00:19;13.70;1.00
1049;DHT22;513;51.444;7.196;2022-07-06T00:02:46;13.70;1.00
1049;DHT22;513;51.444;7.196;2022-07-06T00:05:14;13.60;1.00
1049;DHT22;513;51.444;7.196;2022-07-06T00:07:40;13.60;99.90
1049;DHT22;513;51.444;7.196;2022-07-06T00:10:07;13.60;99.90
1049;DHT22;513;51.444;7.196;2022-07-06T00:12:34;13.60;99.90
1049;DHT22;513;51.444;7.196;2022-07-06T00:15:00;13.60;99.90
1049;DHT22;513;51.444;7.196;2022-07-06T00:17:27;13.60;99.90
1049;DHT22;513;51.444;7.196;2022-07-06T00:19:54;13.60;99.90
1049;DHT22;513;51.444;7.196;2022-07-06T00:22:22;13.50;99.90
1049;DHT22;513;51.444;7.196;2022-07-06T00:24:49;13.50;99.90
1049;DHT22;513;51.444;7.196;2022-07-06T00:27:15;13.50;99.90
1049;DHT22;513;51.444;7.196;2022-07-06T00:29:42;13.50;99.90
1049;DHT22;513;51.444;7.196;2022-07-06T00:32:09;13.50;99.90
1049;DHT22;513;51.444;7.196;2022-07-06T00:34:36;13.50;99.90
1049;DHT22;513;51.444;7.196;2022-07-06T00:37:05;13.50;99.90
1049;DHT22;513;51.444;7.196;2022-07-06T00:39:33;13.50;99.90
1049;DHT22;513;51.444;7.196;2022-07-06T00:42:00;13.50;99.90
1049;DHT22;513;51.444;7.196;2022-07-06T00:44:26;13.50;99.90
1049;DHT22;513;51.444;7.196;2022-07-06T00:46:54;13.40;94.90
1049;DHT22;513;51.444;7.196;2022-07-06T00:49:21;13.40;98.10
1049;DHT22;513;51.444;7.196;2022-07-06T00:52:05;13.40;96.10
1049;DHT22;513;51.444;7.196;2022-07-06T00:54:34;13.40;1.00
1049;DHT22;513;51.444;7.196;2022-07-06T00:57:02;13.40;1.00
1049;DHT22;513;51.444;7.196;2022-07-06T00:59:29;13.30;1.00
1049;DHT22;513;51.444;7.196;2022-07-06T01:01:56;13.20;1.00
1049;DHT22;513;51.444;7.196;2022-07-06T01:04:24;13.20;1.00
1049;DHT22;513;51.444;7.196;2022-07-06T01:06:50;13.10;20.70
1049;DHT22;513;51.444;7.196;2022-07-06T01:09:17;13.00;63.30
1049;DHT22;513;51.444;7.196;2022-07-06T01:11:46;13.00;74.90
1049;DHT22;513;51.444;7.196;2022-07-06T01:14:14;13.00;99.90
1049;DHT22;513;51.444;7.196;2022-07-06T01:16:40;13.00;99.90
1049;DHT22;513;51.444;7.196;2022-07-06T01:19:07;13.00;99.90
1049;DHT22;513;51.444;7.196;2022-07-06T01:21:37;13.00;99.90
1049;DHT22;513;51.444;7.196;2022-07-06T01:24:04;13.00;99.90
1049;DHT22;513;51.444;7.196;2022-07-06T01:26:31;13.00;99.90
1049;DHT22;513;51.444;7.196;2022-07-06T01:28:58;13.00;99.90
1049;DHT22;513;51.444;7.196;2022-07-06T01:31:26;13.10;99.90
1049;DHT22;513;51.444;7.196;2022-07-06T01:33:55;13.10;99.90
1049;DHT22;513;51.444;7.196;2022-07-06T01:36:23;13.10;99.90
1049;DHT22;513;51.444;7.196;2022-07-06T01:38:52;13.10;99.90
1049;DHT22;513;51.444;7.196;2022-07-06T01:41:20;13.10;99.90
1049;DHT22;513;51.444;7.196;2022-07-06T01:43:47;13.10;99.90
1049;DHT22;513;51.444;7.196;2022-07-06T01:46:14;13.20;99.90
1049;DHT22;513;51.444;7.196;2022-07-06T01:48:41;13.20;47.30
1049;DHT22;513;51.444;7.196;2022-07-06T01:51:07;13.20;42.40
1049;DHT22;513;51.444;7.196;2022-07-06T01:53:34;13.20;14.10
1049;DHT22;513;51.444;7.196;2022-07-06T01:56:02;13.20;13.20
1049;DHT22;513;51.444;7.196;2022-07-06T01:58:29;13.10;50.50
1049;DHT22;513;51.444;7.196;2022-07-06T02:00:56;13.10;73.90
1049;DHT22;513;51.444;7.196;2022-07-06T02:03:22;13.10;59.20
1049;DHT22;513;51.444;7.196;2022-07-06T02:05:49;13.20;39.30
1049;DHT22;513;51.444;7.196;2022-07-06T02:08:16;13.20;13.90
1049;DHT22;513;51.444;7.196;2022-07-06T02:10:43;13.20;1.00
1049;DHT22;513;51.444;7.196;2022-07-06T02:13:10;13.20;1.00
1049;DHT22;513;51.444;7.196;2022-07-06T02:15:37;13.20;1.00
1049;DHT22;513;51.444;7.196;2022-07-06T02:18:04;13.20;1.00
1049;DHT22;513;51.444;7.196;2022-07-06T02:20:31;13.10;1.00
1049;DHT22;513;51.444;7.196;2022-07-06T02:22:57;13.00;32.00
1049;DHT22;513;51.444;7.196;2022-07-06T02:25:24;13.00;81.30
1049;DHT22;513;51.444;7.196;2022-07-06T02:27:51;13.00;99.90
1049;DHT22;513;51.444;7.196;2022-07-06T02:30:19;12.80;99.90
1049;DHT22;513;51.444;7.196;2022-07-06T02:32:46;12.70;92.80
1049;DHT22;513;51.444;7.196;2022-07-06T02:35:13;12.60;1.00
1049;DHT22;513;51.444;7.196;2022-07-06T02:37:39;12.50;1.00
1049;DHT22;513;51.444;7.196;2022-07-06T02:40:07;12.50;1.00
1049;DHT22;513;51.444;7.196;2022-07-06T02:42:34;12.50;1.00
1049;DHT22;513;51.444;7.196;2022-07-06T02:45:01;12.50;30.10
1049;DHT22;513;51.444;7.196;2022-07-06T02:47:29;12.50;21.70
1049;DHT22;513;51.444;7.196;2022-07-06T02:49:56;12.40;43.10
1049;DHT22;513;51.444;7.196;2022-07-06T02:52:23;12.40;99.90
1049;DHT22;513;51.444;7.196;2022-07-06T02:54:49;12.30;1.00
1049;DHT22;513;51.444;7.196;2022-07-06T02:57:16;12.20;99.90
1049;DHT22;513;51.444;7.196;2022-07-06T02:59:43;12.20;1.00
1049;DHT22;513;51.444;7.196;2022-07-06T03:02:11;12.20;99.90
1049;DHT22;513;51.444;7.196;2022-07-06T03:04:39;12.10;1.00
1049;DHT22;513;51.444;7.196;2022-07-06T03:07:06;12.10;69.00
1049;DHT22;513;51.444;7.196;2022-07-06T03:09:33;12.00;1.00
1049;DHT22;513;51.444;7.196;2022-07-06T03:11:59;12.00;99.90
1049;DHT22;513;51.444;7.196;2022-07-06T03:14:26;12.00;99.90
1049;DHT22;513;51.444;7.196;2022-07-06T03:16:53;12.00;1.00
1049;DHT22;513;51.444;7.196;2022-07-06T03:19:20;12.00;1.00
1049;DHT22;513;51.444;7.196;2022-07-06T03:21:48;12.00;1.00
1049;DHT22;513;51.444;7.196;2022-07-06T03:24:15;12.00;3.30
1049;DHT22;513;51.444;7.196;2022-07-06T03:26:42;11.90;99.90
1049;DHT22;513;51.444;7.196;2022-07-06T03:29:09;11.90;99.90
1049;DHT22;513;51.444;7.196;2022-07-06T03:31:35;11.90;99.90
1049;DHT22;513;51.444;7.196;2022-07-06T03:34:02;11.80;1.00
1049;DHT22;513;51.444;7.196;2022-07-06T03:36:29;11.80;87.30
1049;DHT22;513;51.444;7.196;2022-07-06T03:38:57;11.80;99.90
1049;DHT22;513;51.444;7.196;2022-07-06T03:41:23;11.80;99.90
1049;DHT22;513;51.444;7.196;2022-07-06T03:43:50;11.80;99.90
1049;DHT22;513;51.444;7.196;2022-07-06T03:46:17;11.70;1.00
1049;DHT22;513;51.444;7.196;2022-07-06T03:48:43;11.80;1.00
1049;DHT22;513;51.444;7.196;2022-07-06T03:51:10;11.80;1.00
1049;DHT22;513;51.444;7.196;2022-07-06T03:53:37;11.90;1.00
1049;DHT22;513;51.444;7.196;2022-07-06T03:56:05;11.90;1.00
1049;DHT22;513;51.444;7.196;2022-07-06T03:58:49;11.90;28.10
1049;DHT22;513;51.444;7.196;2022-07-06T04:01:16;11.90;49.20
1049;DHT22;513;51.444;7.196;2022-07-06T04:03:42;11.90;65.80
1049;DHT22;513;51.444;7.196;2022-07-06T04:06:10;12.00;72.30
1049;DHT22;513;51.444;7.196;2022-07-06T04:08:36;12.00;72.10
1049;DHT22;513;51.444;7.196;2022-07-06T04:11:05;12.00;70.70
1049;DHT22;513;51.444;7.196;2022-07-06T04:13:32;12.10;69.60
1049;DHT22;513;51.444;7.196;2022-07-06T04:15:59;12.20;68.10
1049;DHT22;513;51.444;7.196;2022-07-06T04:18:26;12.20;65.50
1049;DHT22;513;51.444;7.196;2022-07-06T04:20:52;12.30;60.80
1049;DHT22;513;51.444;7.196;2022-07-06T04:23:19;12.40;56.80
1049;DHT22;513;51.444;7.196;2022-07-06T04:25:46;12.40;54.30
1049;DHT22;513;51.444;7.196;2022-07-06T04:28:14;12.40;52.70
1049;DHT22;513;51.444;7.196;2022-07-06T04:30:40;12.50;52.30
1049;DHT22;513;51.444;7.196;2022-07-06T04:33:07;12.60;49.70
1049;DHT22;513;51.444;7.196;2022-07-06T04:35:34;12.50;38.20
1049;DHT22;513;51.444;7.196;2022-07-06T04:38:00;12.60;38.00
1049;DHT22;513;51.444;7.196;2022-07-06T04:40:27;12.70;32.60
1049;DHT22;513;51.444;7.196;2022-07-06T04:42:54;12.70;25.50
1049;DHT22;513;51.444;7.196;2022-07-06T04:45:22;12.80;18.30
1049;DHT22;513;51.444;7.196;2022-07-06T04:47:48;12.90;9.40
1049;DHT22;513;51.444;7.196;2022-07-06T04:50:15;13.00;1.00
1049;DHT22;513;51.444;7.196;2022-07-06T04:52:42;13.10;1.00
1049;DHT22;513;51.444;7.196;2022-07-06T04:55:08;13.10;1.00
1049;DHT22;513;51.444;7.196;2022-07-06T04:57:35;13.20;1.00
1049;DHT22;513;51.444;7.196;2022-07-06T05:00:03;13.20;1.00
1049;DHT22;513;51.444;7.196;2022-07-06T05:02:32;13.30;1.00
1049;DHT22;513;51.444;7.196;2022-07-06T05:04:58;13.40;1.00
1049;DHT22;513;51.444;7.196;2022-07-06T05:07:25;13.50;1.00
1049;DHT22;513;51.444;7.196;2022-07-06T05:09:54;13.50;99.90
1049;DHT22;513;51.444;7.196;2022-07-06T05:12:21;13.50;99.90
1049;DHT22;513;51.444;7.196;2022-07-06T05:14:48;13.60;99.90
1049;DHT22;513;51.444;7.196;2022-07-06T05:17:15;13.60;99.90
1049;DHT22;513;51.444;7.196;2022-07-06T05:19:43;13.60;90.60
1049;DHT22;513;51.444;7.196;2022-07-06T05:22:09;13.70;72.60
1049;DHT22;513;51.444;7.196;2022-07-06T05:24:36;13.90;1.00
1049;DHT22;513;51.444;7.196;2022-07-06T05:27:04;13.90;1.00
1049;DHT22;513;51.444;7.196;2022-07-06T05:29:30;14.00;99.90
1049;DHT22;513;51.444;7.196;2022-07-06T05:31:57;13.80;1.00
1049;DHT22;513;51.444;7.196;2022-07-06T05:34:24;13.80;99.90
1049;DHT22;513;51.444;7.196;2022-07-06T05:36:52;13.70;99.90
1049;DHT22;513;51.444;7.196;2022-07-06T05:39:18;13.80;1.00
1049;DHT22;513;51.444;7.196;2022-07-06T05:41:48;13.70;1.00
1049;DHT22;513;51.444;7.196;2022-07-06T05:44:14;13.70;99.90
1049;DHT22;513;51.444;7.196;2022-07-06T05:46:41;13.70;99.90
1049;DHT22;513;51.444;7.196;2022-07-06T05:49:08;13.70;99.90
1049;DHT22;513;51.444;7.196;2022-07-06T05:51:53;13.70;59.60
1049;DHT22;513;51.444;7.196;2022-07-06T05:54:20;13.70;99.90
1049;DHT22;513;51.444;7.196;2022-07-06T05:56:47;13.80;99.90
1049;DHT22;513;51.444;7.196;2022-07-06T05:59:13;13.90;1.00
1049;DHT22;513;51.444;7.196;2022-07-06T06:01:40;14.00;1.00
1049;DHT22;513;51.444;7.196;2022-07-06T06:04:07;14.10;99.90
1049;DHT22;513;51.444;7.196;2022-07-06T06:06:34;14.20;56.70
1049;DHT22;513;51.444;7.196;2022-07-06T06:09:02;14.30;99.90
1049;DHT22;513;51.444;7.196;2022-07-06T06:11:28;14.50;97.40
1049;DHT22;513;51.444;7.196;2022-07-06T06:13:55;14.50;1.00
1049;DHT22;513;51.444;7.196;2022-07-06T06:16:21;14.60;1.00
1049;DHT22;513;51.444;7.196;2022-07-06T06:18:48;14.70;99.90
1049;DHT22;513;51.444;7.196;2022-07-06T06:21:15;15.00;1.00
1049;DHT22;513;51.444;7.196;2022-07-06T06:23:41;15.20;28.80
1049;DHT22;513;51.444;7.196;2022-07-06T06:26:09;15.30;1.00
1049;DHT22;513;51.444;7.196;2022-07-06T06:28:36;15.40;1.00
1049;DHT22;513;51.444;7.196;2022-07-06T06:31:03;15.60;99.90
1049;DHT22;513;51.444;7.196;2022-07-06T06:33:30;15.70;94.50
1049;DHT22;513;51.444;7.196;2022-07-06T06:35:56;15.80;1.00
1049;DHT22;513;51.444;7.196;2022-07-06T06:38:23;15.70;99.90
1049;DHT22;513;51.444;7.196;2022-07-06T06:40:51;15.60;99.90
1049;DHT22;513;51.444;7.196;2022-07-06T06:43:20;15.50;99.90
1049;DHT22;513;51.444;7.196;2022-07-06T06:45:47;15.60;6.40
1049;DHT22;513;51.444;7.196;2022-07-06T06:48:13;15.50;99.90
1049;DHT22;513;51.444;7.196;2022-07-06T06:50:40;15.60;1.00
1049;DHT22;513;51.444;7.196;2022-07-06T06:53:07;15.50;1.00
1049;DHT22;513;51.444;7.196;2022-07-06T06:55:33;15.60;99.90
1049;DHT22;513;51.444;7.196;2022-07-06T06:58:00;15.60;99.90
1049;DHT22;513;51.444;7.196;2022-07-06T07:00:28;15.70;99.90
1049;DHT22;513;51.444;7.196;2022-07-06T07:02:55;15.70;99.90
1049;DHT22;513;51.444;7.196;2022-07-06T07:05:22;15.70;99.90
1049;DHT22;513;51.444;7.196;2022-07-06T07:07:48;15.90;99.90
1049;DHT22;513;51.444;7.196;2022-07-06T07:10:15;16.00;1.00
1049;DHT22;513;51.444;7.196;2022-07-06T07:12:43;16.00;8.80
1049;DHT22;513;51.444;7.196;2022-07-06T07:15:10;15.90;1.00
1049;DHT22;513;51.444;7.196;2022-07-06T07:17:38;16.10;1.00
1049;DHT22;513;51.444;7.196;2022-07-06T07:20:06;16.30;1.00
1049;DHT22;513;51.444;7.196;2022-07-06T07:22:33;16.50;1.00
1049;DHT22;513;51.444;7.196;2022-07-06T07:25:00;16.60;1.00
1049;DHT22;513;51.444;7.196;2022-07-06T07:27:27;16.60;1.00
1049;DHT22;513;51.444;7.196;2022-07-06T07:29:53;16.50;1.00
1049;DHT22;513;51.444;7.196;2022-07-06T07:32:20;16.40;1.00
1049;DHT22;513;51.444;7.196;2022-07-06T07:34:48;16.40;1.00
1049;DHT22;513;51.444;7.196;2022-07-06T07:37:15;16.50;99.90
1049;DHT22;513;51.444;7.196;2022-07-06T07:39:41;16.40;1.00
1049;DHT22;513;51.444;7.196;2022-07-06T07:42:08;16.40;99.90
1049;DHT22;513;51.444;7.196;2022-07-06T07:44:35;16.40;99.90
1049;DHT22;513;51.444;7.196;2022-07-06T07:47:04;16.40;99.90
1049;DHT22;513;51.444;7.196;2022-07-06T07:49:30;16.40;99.90
1049;DHT22;513;51.444;7.196;2022-07-06T07:51:59;16.60;99.90
1049;DHT22;513;51.444;7.196;2022-07-06T07:54:25;16.80;99.90
1049;DHT22;513;51.444;7.196;2022-07-06T07:56:52;17.00;99.90
1049;DHT22;513;51.444;7.196;2022-07-06T07:59:19;17.20;99.90
1049;DHT22;513;51.444;7.196;2022-07-06T08:01:46;17.00;99.90
1049;DHT22;513;51.444;7.196;2022-07-06T08:04:13;16.80;99.90
1049;DHT22;513;51.444;7.196;2022-07-06T08:06:39;16.70;99.90
1049;DHT22;513;51.444;7.196;2022-07-06T08:09:07;16.90;99.90
1049;DHT22;513;51.444;7.196;2022-07-06T08:11:34;16.90;99.90
1049;DHT22;513;51.444;7.196;2022-07-06T08:14:01;16.90;99.90
1049;DHT22;513;51.444;7.196;2022-07-06T08:16:29;17.00;99.90
1049;DHT22;513;51.444;7.196;2022-07-06T08:18:56;17.10;99.90
1049;DHT22;513;51.444;7.196;2022-07-06T08:21:22;17.30;99.90
1049;DHT22;513;51.444;7.196;2022-07-06T08:23:50;17.20;99.90
1049;DHT22;513;51.444;7.196;2022-07-06T08:26:18;17.00;99.90
1049;DHT22;513;51.444;7.196;2022-07-06T08:28:45;17.00;99.90
1049;DHT22;513;51.444;7.196;2022-07-06T08:31:12;17.10;99.90
1049;DHT22;513;51.444;7.196;2022-07-06T08:33:38;17.00;99.90
1049;DHT22;513;51.444;7.196;2022-07-06T08:36:05;17.30;99.90
1049;DHT22;513;51.444;7.196;2022-07-06T08:38:32;17.50;99.90
1049;DHT22;513;51.444;7.196;2022-07-06T08:40:59;17.80;99.90
1049;DHT22;513;51.444;7.196;2022-07-06T08:43:27;18.00;99.90
1049;DHT22;513;51.444;7.196;2022-07-06T08:45:54;18.30;99.90
1049;DHT22;513;51.444;7.196;2022-07-06T08:48:23;18.50;99.90
1049;DHT22;513;51.444;7.196;2022-07-06T08:50:50;18.60;99.90
1049;DHT22;513;51.444;7.196;2022-07-06T08:53:18;18.20;99.90
1049;DHT22;513;51.444;7.196;2022-07-06T08:55:45;18.20;99.90
1049;DHT22;513;51.444;7.196;2022-07-06T08:58:13;18.00;99.90
1049;DHT22;513;51.444;7.196;2022-07-06T09:00:42;17.90;99.90
1049;DHT22;513;51.444;7.196;2022-07-06T09:03:11;17.70;99.90
1049;DHT22;513;51.444;7.196;2022-07-06T09:05:40;17.80;99.90
1049;DHT22;513;51.444;7.196;2022-07-06T09:08:06;18.00;99.90
1049;DHT22;513;51.444;7.196;2022-07-06T09:10:33;17.90;99.90
1049;DHT22;513;51.444;7.196;2022-07-06T09:13:03;17.60;99.90
1049;DHT22;513;51.444;7.196;2022-07-06T09:15:30;17.60;99.90
1049;DHT22;513;51.444;7.196;2022-07-06T09:17:59;17.60;99.90
1049;DHT22;513;51.444;7.196;2022-07-06T09:20:25;17.90;99.90
1049;DHT22;513;51.444;7.196;2022-07-06T09:22:57;18.20;99.90
1049;DHT22;513;51.444;7.196;2022-07-06T09:25:24;18.40;99.90
1049;DHT22;513;51.444;7.196;2022-07-06T09:27:51;18.70;99.90
1049;DHT22;513;51.444;7.196;2022-07-06T09:30:20;18.80;99.90
1049;DHT22;513;51.444;7.196;2022-07-06T09:32:49;18.90;99.90
1049;DHT22;513;51.444;7.196;2022-07-06T09:35:22;19.00;99.90
1049;DHT22;513;51.444;7.196;2022-07-06T09:38:00;18.80;99.90
1049;DHT22;513;51.444;7.196;2022-07-06T09:40:27;18.90;99.90
1049;DHT22;513;51.444;7.196;2022-07-06T09:43:07;18.50;99.90
1049;DHT22;513;51.444;7.196;2022-07-06T09:45:34;18.60;99.90
1049;DHT22;513;51.444;7.196;2022-07-06T09:48:06;18.50;99.90
1049;DHT22;513;51.444;7.196;2022-07-06T09:50:40;18.70;99.90
1049;DHT22;513;51.444;7.196;2022-07-06T09:53:07;19.00;99.90
1049;DHT22;513;51.444;7.196;2022-07-06T09:55:34;19.10;99.90
1049;DHT22;513;51.444;7.196;2022-07-06T09:58:01;18.90;99.90
1049;DHT22;513;51.444;7.196;2022-07-06T10:00:28;19.00;99.90
1049;DHT22;513;51.444;7.196;2022-07-06T10:02:54;19.00;99.90
1049;DHT22;513;51.444;7.196;2022-07-06T10:05:22;18.90;99.90
1049;DHT22;513;51.444;7.196;2022-07-06T10:07:56;18.80;99.90
1049;DHT22;513;51.444;7.196;2022-07-06T10:10:25;18.80;99.90
1049;DHT22;513;51.444;7.196;2022-07-06T10:12:54;18.40;99.90
1049;DHT22;513;51.444;7.196;2022-07-06T10:15:22;18.20;99.90
1049;DHT22;513;51.444;7.196;2022-07-06T10:17:49;18.30;99.90
1049;DHT22;513;51.444;7.196;2022-07-06T10:20:18;18.40;99.90
1049;DHT22;513;51.444;7.196;2022-07-06T10:22:45;18.20;99.90
1049;DHT22;513;51.444;7.196;2022-07-06T10:25:15;18.50;99.90
1049;DHT22;513;51.444;7.196;2022-07-06T10:27:42;18.50;99.90
1049;DHT22;513;51.444;7.196;2022-07-06T10:30:10;18.30;99.90
1049;DHT22;513;51.444;7.196;2022-07-06T10:32:39;18.00;99.90
1049;DHT22;513;51.444;7.196;2022-07-06T10:35:08;18.20;99.90
1049;DHT22;513;51.444;7.196;2022-07-06T10:37:35;18.40;99.90
1049;DHT22;513;51.444;7.196;2022-07-06T10:40:02;18.70;99.90
1049;DHT22;513;51.444;7.196;2022-07-06T10:42:49;18.80;99.90
1049;DHT22;513;51.444;7.196;2022-07-06T10:45:49;19.00;99.90
1049;DHT22;513;51.444;7.196;2022-07-06T10:48:17;19.40;99.90
1049;DHT22;513;51.444;7.196;2022-07-06T10:50:47;19.50;99.90
1049;DHT22;513;51.444;7.196;2022-07-06T10:53:15;19.90;99.90
1049;DHT22;513;51.444;7.196;2022-07-06T10:55:44;19.90;99.90
1049;DHT22;513;51.444;7.196;2022-07-06T10:58:13;19.90;99.90
1049;DHT22;513;51.444;7.196;2022-07-06T11:00:50;20.30;99.90
1049;DHT22;513;51.444;7.196;2022-07-06T11:03:31;20.60;99.90
1049;DHT22;513;51.444;7.196;2022-07-06T11:05:58;20.20;99.90
1049;DHT22;513;51.444;7.196;2022-07-06T11:08:50;20.00;99.90
1049;DHT22;513;51.444;7.196;2022-07-06T11:11:18;19.60;99.90
1049;DHT22;513;51.444;7.196;2022-07-06T11:13:55;19.80;99.90
1049;DHT22;513;51.444;7.196;2022-07-06T11:16:24;20.10;99.90
1049;DHT22;513;51.444;7.196;2022-07-06T11:19:04;20.40;99.90
1049;DHT22;513;51.444;7.196;2022-07-06T11:21:33;20.10;99.90
1049;DHT22;513;51.444;7.196;2022-07-06T11:24:01;20.30;99.90
1049;DHT22;513;51.444;7.196;2022-07-06T11:26:30;20.30;99.90
1049;DHT22;513;51.444;7.196;2022-07-06T11:28:59;19.90;99.90
1049;DHT22;513;51.444;7.196;2022-07-06T11:31:26;20.00;99.90
1049;DHT22;513;51.444;7.196;2022-07-06T11:33:53;19.80;99.90
1049;DHT22;513;51.444;7.196;2022-07-06T11:36:21;20.00;99.90
1049;DHT22;513;51.444;7.196;2022-07-06T11:38:48;19.80;99.90
1049;DHT22;513;51.444;7.196;2022-07-06T11:41:16;20.00;99.90
1049;DHT22;513;51.444;7.196;2022-07-06T11:43:44;19.80;99.90
1049;DHT22;513;51.444;7.196;2022-07-06T11:46:24;19.80;99.90
1049;DHT22;513;51.444;7.196;2022-07-06T11:48:53;19.70;99.90
1049;DHT22;513;51.444;7.196;2022-07-06T11:51:20;19.70;99.90
1049;DHT22;513;51.444;7.196;2022-07-06T11:53:50;19.50;99.90
1049;DHT22;513;51.444;7.196;2022-07-06T11:56:18;19.20;99.90
1049;DHT22;513;51.444;7.196;2022-07-06T11:58:48;19.20;99.90
1049;DHT22;513;51.444;7.196;2022-07-06T12:01:15;18.90;99.90
1049;DHT22;513;51.444;7.196;2022-07-06T12:03:44;19.00;99.90
1049;DHT22;513;51.444;7.196;2022-07-06T12:06:17;19.10;99.90
1049;DHT22;513;51.444;7.196;2022-07-06T12:08:45;19.30;99.90
1049;DHT22;513;51.444;7.196;2022-07-06T12:11:19;19.50;99.90
1049;DHT22;513;51.444;7.196;2022-07-06T12:13:47;19.60;99.90
1049;DHT22;513;51.444;7.196;2022-07-06T12:16:14;19.70;99.90
1049;DHT22;513;51.444;7.196;2022-07-06T12:18:44;20.20;99.90
1049;DHT22;513;51.444;7.196;2022-07-06T12:21:13;20.20;99.90
1049;DHT22;513;51.444;7.196;2022-07-06T12:23:43;20.80;99.90
1049;DHT22;513;51.444;7.196;2022-07-06T12:26:10;21.20;99.90
1049;DHT22;513;51.444;7.196;2022-07-06T12:28:37;21.20;99.90
1049;DHT22;513;51.444;7.196;2022-07-06T12:31:04;21.30;99.90
1049;DHT22;513;51.444;7.196;2022-07-06T12:33:31;21.50;99.90
1049;DHT22;513;51.444;7.196;2022-07-06T12:36:13;21.30;99.90
1049;DHT22;513;51.444;7.196;2022-07-06T12:38:45;21.40;99.90
1049;DHT22;513;51.444;7.196;2022-07-06T12:41:28;21.70;99.90
1049;DHT22;513;51.444;7.196;2022-07-06T12:44:09;21.40;99.90
1049;DHT22;513;51.444;7.196;2022-07-06T12:46:37;21.30;99.90
1049;DHT22;513;51.444;7.196;2022-07-06T12:49:11;21.50;99.90
1049;DHT22;513;51.444;7.196;2022-07-06T12:51:57;21.70;99.90
1049;DHT22;513;51.444;7.196;2022-07-06T12:54:26;21.60;99.90
1049;DHT22;513;51.444;7.196;2022-07-06T12:57:01;21.50;99.90
1049;DHT22;513;51.444;7.196;2022-07-06T12:59:28;21.20;99.90
1049;DHT22;513;51.444;7.196;2022-07-06T13:01:55;20.60;99.90
1049;DHT22;513;51.444;7.196;2022-07-06T13:04:22;20.70;99.90
1049;DHT22;513;51.444;7.196;2022-07-06T13:06:49;20.60;99.90
1049;DHT22;513;51.444;7.196;2022-07-06T13:09:17;21.10;99.90
1049;DHT22;513;51.444;7.196;2022-07-06T13:11:44;21.60;99.90
1049;DHT22;513;51.444;7.196;2022-07-06T13:14:12;21.50;99.90
1049;DHT22;513;51.444;7.196;2022-07-06T13:16:39;21.30;99.90
1049;DHT22;513;51.444;7.196;2022-07-06T13:19:05;21.40;99.90
1049;DHT22;513;51.444;7.196;2022-07-06T13:21:32;21.50;99.90
1049;DHT22;513;51.444;7.196;2022-07-06T13:23:59;21.40;99.90
1049;DHT22;513;51.444;7.196;2022-07-06T13:26:27;21.50;99.90
1049;DHT22;513;51.444;7.196;2022-07-06T13:28:54;21.70;99.90
1049;DHT22;513;51.444;7.196;2022-07-06T13:31:21;21.80;99.90
1049;DHT22;513;51.444;7.196;2022-07-06T13:33:48;21.70;99.90
1049;DHT22;513;51.444;7.196;2022-07-06T13:36:14;21.90;99.90
1049;DHT22;513;51.444;7.196;2022-07-06T13:38:41;21.90;99.90
1049;DHT22;513;51.444;7.196;2022-07-06T13:41:08;21.70;99.90
1049;DHT22;513;51.444;7.196;2022-07-06T13:43:36;21.90;99.90
1049;DHT22;513;51.444;7.196;2022-07-06T13:46:04;21.70;99.90
1049;DHT22;513;51.444;7.196;2022-07-06T13:48:32;21.70;99.90
1049;DHT22;513;51.444;7.196;2022-07-06T13:50:59;21.40;99.90
1049;DHT22;513;51.444;7.196;2022-07-06T13:53:26;21.00;99.90
1049;DHT22;513;51.444;7.196;2022-07-06T13:55:54;21.00;99.90
1049;DHT22;513;51.444;7.196;2022-07-06T13:58:20;20.90;99.90
1049;DHT22;513;51.444;7.196;2022-07-06T14:00:49;21.20;99.90
1049;DHT22;513;51.444;7.196;2022-07-06T14:03:15;21.20;99.90
1049;DHT22;513;51.444;7.196;2022-07-06T14:05:42;21.00;99.90
1049;DHT22;513;51.444;7.196;2022-07-06T14:08:09;21.10;99.90
1049;DHT22;513;51.444;7.196;2022-07-06T14:10:35;21.20;99.90
1049;DHT22;513;51.444;7.196;2022-07-06T14:13:02;21.40;99.90
1049;DHT22;513;51.444;7.196;2022-07-06T14:15:29;21.50;99.90
1049;DHT22;513;51.444;7.196;2022-07-06T14:17:57;21.70;99.90
1049;DHT22;513;51.444;7.196;2022-07-06T14:20:24;21.30;99.90
1049;DHT22;513;51.444;7.196;2022-07-06T14:22:50;21.40;99.90
1049;DHT22;513;51.444;7.196;2022-07-06T14:25:17;21.30;99.90
1049;DHT22;513;51.444;7.196;2022-07-06T14:27:44;21.50;99.90
1049;DHT22;513;51.444;7.196;2022-07-06T14:30:11;21.50;99.90
1049;DHT22;513;51.444;7.196;2022-07-06T14:32:38;21.70;99.90
1049;DHT22;513;51.444;7.196;2022-07-06T14:35:06;22.00;99.90
1049;DHT22;513;51.444;7.196;2022-07-06T14:37:33;22.20;99.90
1049;DHT22;513;51.444;7.196;2022-07-06T14:39:59;22.50;99.90
1049;DHT22;513;51.444;7.196;2022-07-06T14:42:26;22.50;99.90
1049;DHT22;513;51.444;7.196;2022-07-06T14:44:53;22.70;99.90
1049;DHT22;513;51.444;7.196;2022-07-06T14:47:19;22.30;99.90
1049;DHT22;513;51.444;7.196;2022-07-06T14:49:46;22.10;99.90
1049;DHT22;513;51.444;7.196;2022-07-06T14:52:14;22.00;99.90
1049;DHT22;513;51.444;7.196;2022-07-06T14:54:41;21.80;99.90
1049;DHT22;513;51.444;7.196;2022-07-06T14:57:07;21.80;99.90
1049;DHT22;513;51.444;7.196;2022-07-06T14:59:34;21.80;99.90
1049;DHT22;513;51.444;7.196;2022-07-06T15:02:01;21.90;99.90
1049;DHT22;513;51.444;7.196;2022-07-06T15:04:28;21.90;99.90
1049;DHT22;513;51.444;7.196;2022-07-06T15:06:55;22.00;99.90
1049;DHT22;513;51.444;7.196;2022-07-06T15:09:23;21.60;99.90
1049;DHT22;513;51.444;7.196;2022-07-06T15:11:51;21.20;99.90
1049;DHT22;513;51.444;7.196;2022-07-06T15:14:18;21.20;99.90
1049;DHT22;513;51.444;7.196;2022-07-06T15:16:45;21.40;99.90
1049;DHT22;513;51.444;7.196;2022-07-06T15:19:12;21.70;99.90
1049;DHT22;513;51.444;7.196;2022-07-06T15:21:39;21.80;99.90
1049;DHT22;513;51.444;7.196;2022-07-06T15:24:06;21.40;99.90
1049;DHT22;513;51.444;7.196;2022-07-06T15:26:34;21.50;99.90
1049;DHT22;513;51.444;7.196;2022-07-06T15:29:00;21.60;99.90
1049;DHT22;513;51.444;7.196;2022-07-06T15:31:27;21.70;99.90
1049;DHT22;513;51.444;7.196;2022-07-06T15:33:54;21.50;99.90
1049;DHT22;513;51.444;7.196;2022-07-06T15:36:20;21.50;99.90
1049;DHT22;513;51.444;7.196;2022-07-06T15:38:47;21.40;99.90
1049;DHT22;513;51.444;7.196;2022-07-06T15:41:14;21.40;99.90
1049;DHT22;513;51.444;7.196;2022-07-06T15:43:42;21.40;99.90
1049;DHT22;513;51.444;7.196;2022-07-06T15:46:11;21.40;99.90
1049;DHT22;513;51.444;7.196;2022-07-06T15:48:38;20.90;99.90
1049;DHT22;513;51.444;7.196;2022-07-06T15:51:05;20.90;99.90
1049;DHT22;513;51.444;7.196;2022-07-06T15:53:33;20.90;99.90
1049;DHT22;513;51.444;7.196;2022-07-06T15:55:59;21.00;99.90
1049;DHT22;513;51.444;7.196;2022-07-06T15:58:26;21.10;99.90
1049;DHT22;513;51.444;7.196;2022-07-06T16:00:54;21.40;99.90
1049;DHT22;513;51.444;7.196;2022-07-06T16:03:21;21.60;99.90
1049;DHT22;513;51.444;7.196;2022-07-06T16:05:48;21.60;99.90
1049;DHT22;513;51.444;7.196;2022-07-06T16:08:15;21.90;99.90
1049;DHT22;513;51.444;7.196;2022-07-06T16:10:42;22.20;99.90
1049;DHT22;513;51.444;7.196;2022-07-06T16:13:08;22.20;99.90
1049;DHT22;513;51.444;7.196;2022-07-06T16:15:35;22.10;99.90
1049;DHT22;513;51.444;7.196;2022-07-06T16:18:03;22.20;99.90
1049;DHT22;513;51.444;7.196;2022-07-06T16:20:30;21.80;99.90
1049;DHT22;513;51.444;7.196;2022-07-06T16:22:56;21.80;99.90